sensor_id;sensor_type;location;lat;lon;timestamp;P1;durP1;ratioP1;P2;durP2;ratioP2
80758;SDS011;70150;45.582;10.178;2023-05-20T00:01:32;10.95;;;3.72;;
80758;SDS011;70150;45.582;10.178;2023-05-20T00:03:58;8.05;;;3.60;;
80758;SDS011;70150;45.582;10.178;2023-05-20T00:06:26;6.03;;;3.40;;
80758;SDS011;70150;45.582;10.178;2023-05-20T00:08:52;5.05;;;3.55;;
80758;SDS011;70150;45.582;10.178;2023-05-20T00:13:45;9.15;;;4.10;;
80758;SDS011;70150;45.582;10.178;2023-05-20T00:16:11;7.82;;;4.30;;
80758;SDS011;70150;45.582;10.178;2023-05-20T00:18:36;8.10;;;4.15;;
80758;SDS011;70150;45.582;10.178;2023-05-20T00:21:02;7.53;;;4.30;;
80758;SDS011;70150;45.582;10.178;2023-05-20T00:23:28;8.35;;;4.40;;
80758;SDS011;70150;45.582;10.178;2023-05-20T00:25:54;7.90;;;4.13;;
80758;SDS011;70150;45.582;10.178;2023-05-20T00:28:19;8.75;;;4.28;;
80758;SDS011;70150;45.582;10.178;2023-05-20T00:30:45;9.75;;;4.00;;
80758;SDS011;70150;45.582;10.178;2023-05-20T00:33:11;7.30;;;4.10;;
80758;SDS011;70150;45.582;10.178;2023-05-20T00:35:36;7.18;;;3.40;;
80758;SDS011;70150;45.582;10.178;2023-05-20T00:38:02;9.23;;;4.15;;
80758;SDS011;70150;45.582;10.178;2023-05-20T00:40:27;7.07;;;3.72;;
80758;SDS011;70150;45.582;10.178;2023-05-20T00:42:53;5.57;;;3.30;;
80758;SDS011;70150;45.582;10.178;2023-05-20T00:45:18;7.53;;;3.35;;
80758;SDS011;70150;45.582;10.178;2023-05-20T00:47:44;6.45;;;3.30;;
80758;SDS011;70150;45.582;10.178;2023-05-20T00:50:10;5.43;;;3.42;;
80758;SDS011;70150;45.582;10.178;2023-05-20T00:52:35;6.35;;;3.63;;
80758;SDS011;70150;45.582;10.178;2023-05-20T00:55:02;5.45;;;3.40;;
80758;SDS011;70150;45.582;10.178;2023-05-20T00:57:28;6.65;;;2.95;;
80758;SDS011;70150;45.582;10.178;2023-05-20T00:59:53;5.47;;;2.70;;
80758;SDS011;70150;45.582;10.178;2023-05-20T01:02:19;6.53;;;3.00;;
80758;SDS011;70150;45.582;10.178;2023-05-20T01:04:45;5.15;;;3.20;;
80758;SDS011;70150;45.582;10.178;2023-05-20T01:07:12;6.25;;;2.92;;
80758;SDS011;70150;45.582;10.178;2023-05-20T01:09:39;5.38;;;3.10;;
80758;SDS011;70150;45.582;10.178;2023-05-20T01:12:08;4.10;;;2.90;;
80758;SDS011;70150;45.582;10.178;2023-05-20T01:17:11;5.32;;;2.80;;
80758;SDS011;70150;45.582;10.178;2023-05-20T01:19:42;6.82;;;3.08;;
80758;SDS011;70150;45.582;10.178;2023-05-20T01:27:09;6.95;;;2.90;;
80758;SDS011;70150;45.582;10.178;2023-05-20T01:29:37;6.20;;;2.88;;
80758;SDS011;70150;45.582;10.178;2023-05-20T01:34:36;4.00;;;2.45;;
80758;SDS011;70150;45.582;10.178;2023-05-20T01:37:05;3.70;;;2.58;;
80758;SDS011;70150;45.582;10.178;2023-05-20T01:39:34;4.70;;;2.70;;
80758;SDS011;70150;45.582;10.178;2023-05-20T01:42:02;5.57;;;2.65;;
80758;SDS011;70150;45.582;10.178;2023-05-20T01:44:29;5.63;;;2.65;;
80758;SDS011;70150;45.582;10.178;2023-05-20T01:46:55;4.28;;;2.38;;
80758;SDS011;70150;45.582;10.178;2023-05-20T01:49:20;5.88;;;2.53;;
80758;SDS011;70150;45.582;10.178;2023-05-20T01:51:46;5.18;;;2.40;;
80758;SDS011;70150;45.582;10.178;2023-05-20T01:54:11;5.28;;;2.50;;
80758;SDS011;70150;45.582;10.178;2023-05-20T01:56:37;6.97;;;2.25;;
80758;SDS011;70150;45.582;10.178;2023-05-20T01:59:02;4.45;;;2.35;;
80758;SDS011;70150;45.582;10.178;2023-05-20T02:01:28;5.22;;;2.20;;
80758;SDS011;70150;45.582;10.178;2023-05-20T02:03:53;3.45;;;2.28;;
80758;SDS011;70150;45.582;10.178;2023-05-20T02:06:19;3.20;;;2.25;;
80758;SDS011;70150;45.582;10.178;2023-05-20T02:08:44;3.40;;;2.00;;
80758;SDS011;70150;45.582;10.178;2023-05-20T02:11:10;3.90;;;2.47;;
80758;SDS011;70150;45.582;10.178;2023-05-20T02:13:35;5.40;;;3.08;;
80758;SDS011;70150;45.582;10.178;2023-05-20T02:16:01;5.05;;;3.00;;
80758;SDS011;70150;45.582;10.178;2023-05-20T02:18:26;8.13;;;2.63;;
80758;SDS011;70150;45.582;10.178;2023-05-20T02:20:52;6.60;;;2.67;;
80758;SDS011;70150;45.582;10.178;2023-05-20T02:23:17;3.70;;;2.38;;
80758;SDS011;70150;45.582;10.178;2023-05-20T02:25:43;5.07;;;2.22;;
80758;SDS011;70150;45.582;10.178;2023-05-20T02:28:09;4.72;;;2.70;;
80758;SDS011;70150;45.582;10.178;2023-05-20T02:30:36;3.97;;;2.83;;
80758;SDS011;70150;45.582;10.178;2023-05-20T02:35:27;3.53;;;2.30;;
80758;SDS011;70150;45.582;10.178;2023-05-20T02:37:53;5.20;;;2.47;;
80758;SDS011;70150;45.582;10.178;2023-05-20T02:40:18;6.40;;;2.78;;
80758;SDS011;70150;45.582;10.178;2023-05-20T02:42:44;5.35;;;2.00;;
80758;SDS011;70150;45.582;10.178;2023-05-20T02:45:11;5.25;;;2.33;;
80758;SDS011;70150;45.582;10.178;2023-05-20T02:47:36;5.35;;;2.50;;
80758;SDS011;70150;45.582;10.178;2023-05-20T02:50:02;3.97;;;2.30;;
80758;SDS011;70150;45.582;10.178;2023-05-20T02:52:28;4.55;;;2.40;;
80758;SDS011;70150;45.582;10.178;2023-05-20T02:54:53;4.53;;;2.63;;
80758;SDS011;70150;45.582;10.178;2023-05-20T02:57:20;3.03;;;1.92;;
80758;SDS011;70150;45.582;10.178;2023-05-20T02:59:46;3.42;;;2.10;;
80758;SDS011;70150;45.582;10.178;2023-05-20T03:02:11;3.75;;;2.50;;
80758;SDS011;70150;45.582;10.178;2023-05-20T03:04:37;2.85;;;2.05;;
80758;SDS011;70150;45.582;10.178;2023-05-20T03:09:32;3.78;;;2.15;;
80758;SDS011;70150;45.582;10.178;2023-05-20T03:11:58;3.50;;;2.38;;
80758;SDS011;70150;45.582;10.178;2023-05-20T03:14:24;5.85;;;2.45;;
80758;SDS011;70150;45.582;10.178;2023-05-20T03:16:49;3.33;;;2.28;;
80758;SDS011;70150;45.582;10.178;2023-05-20T03:19:15;4.35;;;2.42;;
80758;SDS011;70150;45.582;10.178;2023-05-20T03:21:40;3.80;;;2.15;;
80758;SDS011;70150;45.582;10.178;2023-05-20T03:24:07;4.63;;;2.42;;
80758;SDS011;70150;45.582;10.178;2023-05-20T03:26:34;4.30;;;2.15;;
80758;SDS011;70150;45.582;10.178;2023-05-20T03:29:02;4.07;;;2.13;;
80758;SDS011;70150;45.582;10.178;2023-05-20T03:31:27;7.88;;;2.65;;
80758;SDS011;70150;45.582;10.178;2023-05-20T03:33:53;4.50;;;2.20;;
80758;SDS011;70150;45.582;10.178;2023-05-20T03:36:19;5.10;;;2.30;;
80758;SDS011;70150;45.582;10.178;2023-05-20T03:38:44;3.50;;;2.10;;
80758;SDS011;70150;45.582;10.178;2023-05-20T03:41:10;4.57;;;2.17;;
80758;SDS011;70150;45.582;10.178;2023-05-20T03:43:38;4.70;;;1.88;;
80758;SDS011;70150;45.582;10.178;2023-05-20T03:46:04;6.07;;;2.20;;
80758;SDS011;70150;45.582;10.178;2023-05-20T03:48:29;3.28;;;1.90;;
80758;SDS011;70150;45.582;10.178;2023-05-20T03:50:55;5.13;;;2.13;;
80758;SDS011;70150;45.582;10.178;2023-05-20T03:53:23;3.42;;;2.00;;
80758;SDS011;70150;45.582;10.178;2023-05-20T03:55:48;4.22;;;2.00;;
80758;SDS011;70150;45.582;10.178;2023-05-20T03:58:14;3.38;;;1.70;;
80758;SDS011;70150;45.582;10.178;2023-05-20T04:00:40;4.63;;;2.05;;
80758;SDS011;70150;45.582;10.178;2023-05-20T04:03:05;6.70;;;2.47;;
80758;SDS011;70150;45.582;10.178;2023-05-20T04:05:31;4.00;;;2.08;;
80758;SDS011;70150;45.582;10.178;2023-05-20T04:07:59;4.60;;;1.92;;
80758;SDS011;70150;45.582;10.178;2023-05-20T04:10:24;2.97;;;1.83;;
80758;SDS011;70150;45.582;10.178;2023-05-20T04:12:50;4.53;;;1.98;;
80758;SDS011;70150;45.582;10.178;2023-05-20T04:15:16;4.47;;;2.03;;
80758;SDS011;70150;45.582;10.178;2023-05-20T04:17:43;6.20;;;2.10;;
80758;SDS011;70150;45.582;10.178;2023-05-20T04:20:12;4.38;;;2.10;;
80758;SDS011;70150;45.582;10.178;2023-05-20T04:22:38;3.72;;;1.83;;
80758;SDS011;70150;45.582;10.178;2023-05-20T04:25:04;3.72;;;1.70;;
80758;SDS011;70150;45.582;10.178;2023-05-20T04:27:30;3.97;;;1.98;;
80758;SDS011;70150;45.582;10.178;2023-05-20T04:29:57;2.97;;;1.95;;
80758;SDS011;70150;45.582;10.178;2023-05-20T04:32:23;3.65;;;1.98;;
80758;SDS011;70150;45.582;10.178;2023-05-20T04:34:48;3.70;;;1.85;;
80758;SDS011;70150;45.582;10.178;2023-05-20T04:37:14;3.60;;;1.95;;
80758;SDS011;70150;45.582;10.178;2023-05-20T04:39:40;3.78;;;2.03;;
80758;SDS011;70150;45.582;10.178;2023-05-20T04:42:07;4.05;;;1.40;;
80758;SDS011;70150;45.582;10.178;2023-05-20T04:44:33;3.72;;;2.13;;
80758;SDS011;70150;45.582;10.178;2023-05-20T04:46:59;2.80;;;1.80;;
80758;SDS011;70150;45.582;10.178;2023-05-20T04:49:26;4.85;;;2.22;;
80758;SDS011;70150;45.582;10.178;2023-05-20T04:54:20;6.55;;;2.38;;
80758;SDS011;70150;45.582;10.178;2023-05-20T04:56:45;3.58;;;2.20;;
80758;SDS011;70150;45.582;10.178;2023-05-20T04:59:11;4.25;;;2.60;;
80758;SDS011;70150;45.582;10.178;2023-05-20T05:01:37;4.18;;;2.58;;
80758;SDS011;70150;45.582;10.178;2023-05-20T05:04:02;4.63;;;2.40;;
80758;SDS011;70150;45.582;10.178;2023-05-20T05:06:28;5.57;;;2.75;;
80758;SDS011;70150;45.582;10.178;2023-05-20T05:08:54;4.40;;;2.47;;
80758;SDS011;70150;45.582;10.178;2023-05-20T05:11:19;7.28;;;2.30;;
80758;SDS011;70150;45.582;10.178;2023-05-20T05:13:45;3.70;;;2.28;;
80758;SDS011;70150;45.582;10.178;2023-05-20T05:16:11;3.83;;;2.17;;
80758;SDS011;70150;45.582;10.178;2023-05-20T05:18:36;4.50;;;2.10;;
80758;SDS011;70150;45.582;10.178;2023-05-20T05:21:03;4.47;;;2.22;;
80758;SDS011;70150;45.582;10.178;2023-05-20T05:23:29;3.53;;;2.10;;
80758;SDS011;70150;45.582;10.178;2023-05-20T05:25:55;3.60;;;2.30;;
80758;SDS011;70150;45.582;10.178;2023-05-20T05:28:21;3.88;;;2.38;;
80758;SDS011;70150;45.582;10.178;2023-05-20T05:30:46;5.28;;;2.15;;
80758;SDS011;70150;45.582;10.178;2023-05-20T05:33:13;4.45;;;2.40;;
80758;SDS011;70150;45.582;10.178;2023-05-20T05:35:39;3.17;;;2.45;;
80758;SDS011;70150;45.582;10.178;2023-05-20T05:38:06;4.10;;;2.35;;
80758;SDS011;70150;45.582;10.178;2023-05-20T05:40:32;5.47;;;2.13;;
80758;SDS011;70150;45.582;10.178;2023-05-20T05:42:58;2.97;;;2.08;;
80758;SDS011;70150;45.582;10.178;2023-05-20T05:45:26;5.10;;;2.22;;
80758;SDS011;70150;45.582;10.178;2023-05-20T05:47:51;5.00;;;2.13;;
80758;SDS011;70150;45.582;10.178;2023-05-20T05:50:19;3.70;;;1.92;;
80758;SDS011;70150;45.582;10.178;2023-05-20T05:52:45;3.83;;;2.20;;
80758;SDS011;70150;45.582;10.178;2023-05-20T05:55:10;5.40;;;2.30;;
80758;SDS011;70150;45.582;10.178;2023-05-20T05:57:36;3.65;;;2.50;;
80758;SDS011;70150;45.582;10.178;2023-05-20T06:00:02;5.38;;;2.25;;
80758;SDS011;70150;45.582;10.178;2023-05-20T06:02:28;5.85;;;2.13;;
80758;SDS011;70150;45.582;10.178;2023-05-20T06:04:54;6.13;;;2.40;;
80758;SDS011;70150;45.582;10.178;2023-05-20T06:07:19;3.70;;;2.53;;
80758;SDS011;70150;45.582;10.178;2023-05-20T06:09:46;4.47;;;2.33;;
80758;SDS011;70150;45.582;10.178;2023-05-20T06:12:11;6.13;;;2.40;;
80758;SDS011;70150;45.582;10.178;2023-05-20T06:14:37;6.57;;;2.40;;
80758;SDS011;70150;45.582;10.178;2023-05-20T06:17:02;4.85;;;2.20;;
80758;SDS011;70150;45.582;10.178;2023-05-20T06:19:29;6.38;;;2.40;;
80758;SDS011;70150;45.582;10.178;2023-05-20T06:21:55;3.60;;;2.33;;
80758;SDS011;70150;45.582;10.178;2023-05-20T06:24:22;5.63;;;2.65;;
80758;SDS011;70150;45.582;10.178;2023-05-20T06:26:48;4.78;;;2.63;;
80758;SDS011;70150;45.582;10.178;2023-05-20T06:29:15;5.75;;;2.40;;
80758;SDS011;70150;45.582;10.178;2023-05-20T06:31:40;4.30;;;2.72;;
80758;SDS011;70150;45.582;10.178;2023-05-20T06:34:06;5.78;;;2.88;;
80758;SDS011;70150;45.582;10.178;2023-05-20T06:36:32;4.15;;;2.53;;
80758;SDS011;70150;45.582;10.178;2023-05-20T06:38:57;5.80;;;2.75;;
80758;SDS011;70150;45.582;10.178;2023-05-20T06:41:23;5.85;;;2.70;;
80758;SDS011;70150;45.582;10.178;2023-05-20T06:43:49;3.42;;;2.40;;
80758;SDS011;70150;45.582;10.178;2023-05-20T06:46:14;5.53;;;2.33;;
80758;SDS011;70150;45.582;10.178;2023-05-20T06:48:40;4.72;;;2.65;;
80758;SDS011;70150;45.582;10.178;2023-05-20T06:51:06;5.53;;;2.80;;
80758;SDS011;70150;45.582;10.178;2023-05-20T06:53:33;5.80;;;2.72;;
80758;SDS011;70150;45.582;10.178;2023-05-20T06:55:59;6.20;;;3.03;;
80758;SDS011;70150;45.582;10.178;2023-05-20T06:58:27;5.38;;;2.78;;
80758;SDS011;70150;45.582;10.178;2023-05-20T07:00:53;6.68;;;3.15;;
80758;SDS011;70150;45.582;10.178;2023-05-20T07:03:19;4.75;;;2.95;;
80758;SDS011;70150;45.582;10.178;2023-05-20T07:05:44;5.93;;;2.80;;
80758;SDS011;70150;45.582;10.178;2023-05-20T07:08:10;5.22;;;2.72;;
80758;SDS011;70150;45.582;10.178;2023-05-20T07:10:38;4.47;;;2.67;;
80758;SDS011;70150;45.582;10.178;2023-05-20T07:13:03;5.38;;;2.97;;
80758;SDS011;70150;45.582;10.178;2023-05-20T07:15:31;5.15;;;2.90;;
80758;SDS011;70150;45.582;10.178;2023-05-20T07:17:57;6.38;;;2.45;;
80758;SDS011;70150;45.582;10.178;2023-05-20T07:20:23;4.57;;;2.80;;
80758;SDS011;70150;45.582;10.178;2023-05-20T07:22:53;5.75;;;2.85;;
80758;SDS011;70150;45.582;10.178;2023-05-20T07:25:18;5.35;;;3.25;;
80758;SDS011;70150;45.582;10.178;2023-05-20T07:27:44;4.80;;;2.72;;
80758;SDS011;70150;45.582;10.178;2023-05-20T07:30:10;7.05;;;2.90;;
80758;SDS011;70150;45.582;10.178;2023-05-20T07:32:35;3.70;;;2.42;;
80758;SDS011;70150;45.582;10.178;2023-05-20T07:35:01;4.47;;;2.83;;
80758;SDS011;70150;45.582;10.178;2023-05-20T07:37:26;4.80;;;3.13;;
80758;SDS011;70150;45.582;10.178;2023-05-20T07:39:52;3.97;;;2.70;;
80758;SDS011;70150;45.582;10.178;2023-05-20T07:42:18;5.25;;;2.95;;
80758;SDS011;70150;45.582;10.178;2023-05-20T07:44:43;7.28;;;3.15;;
80758;SDS011;70150;45.582;10.178;2023-05-20T07:47:09;5.32;;;3.38;;
80758;SDS011;70150;45.582;10.178;2023-05-20T07:49:34;4.68;;;2.80;;
80758;SDS011;70150;45.582;10.178;2023-05-20T07:52:02;5.95;;;2.95;;
80758;SDS011;70150;45.582;10.178;2023-05-20T07:54:28;4.93;;;2.92;;
80758;SDS011;70150;45.582;10.178;2023-05-20T07:56:53;5.15;;;3.15;;
80758;SDS011;70150;45.582;10.178;2023-05-20T07:59:19;7.65;;;3.38;;
80758;SDS011;70150;45.582;10.178;2023-05-20T08:01:45;8.15;;;3.40;;
80758;SDS011;70150;45.582;10.178;2023-05-20T08:04:11;4.95;;;3.30;;
80758;SDS011;70150;45.582;10.178;2023-05-20T08:06:36;5.65;;;3.13;;
80758;SDS011;70150;45.582;10.178;2023-05-20T08:09:02;6.53;;;3.83;;
80758;SDS011;70150;45.582;10.178;2023-05-20T08:11:28;7.28;;;3.13;;
80758;SDS011;70150;45.582;10.178;2023-05-20T08:13:53;5.80;;;3.47;;
80758;SDS011;70150;45.582;10.178;2023-05-20T08:16:19;5.05;;;3.13;;
80758;SDS011;70150;45.582;10.178;2023-05-20T08:18:45;7.45;;;2.97;;
80758;SDS011;70150;45.582;10.178;2023-05-20T08:21:13;5.25;;;3.15;;
80758;SDS011;70150;45.582;10.178;2023-05-20T08:23:39;5.63;;;3.03;;
80758;SDS011;70150;45.582;10.178;2023-05-20T08:26:05;4.70;;;2.80;;
80758;SDS011;70150;45.582;10.178;2023-05-20T08:28:31;3.03;;;2.42;;
80758;SDS011;70150;45.582;10.178;2023-05-20T08:30:56;4.25;;;2.30;;
80758;SDS011;70150;45.582;10.178;2023-05-20T08:33:22;5.47;;;2.30;;
80758;SDS011;70150;45.582;10.178;2023-05-20T08:35:48;5.68;;;1.85;;
80758;SDS011;70150;45.582;10.178;2023-05-20T08:38:14;4.70;;;2.30;;
80758;SDS011;70150;45.582;10.178;2023-05-20T08:40:40;4.68;;;2.20;;
80758;SDS011;70150;45.582;10.178;2023-05-20T08:43:10;5.13;;;2.60;;
80758;SDS011;70150;45.582;10.178;2023-05-20T08:45:36;3.85;;;2.05;;
80758;SDS011;70150;45.582;10.178;2023-05-20T08:48:03;4.07;;;2.10;;
80758;SDS011;70150;45.582;10.178;2023-05-20T08:50:29;6.03;;;2.60;;
80758;SDS011;70150;45.582;10.178;2023-05-20T08:52:55;4.72;;;2.53;;
80758;SDS011;70150;45.582;10.178;2023-05-20T08:57:53;3.90;;;2.35;;
80758;SDS011;70150;45.582;10.178;2023-05-20T09:00:21;4.82;;;2.63;;
80758;SDS011;70150;45.582;10.178;2023-05-20T09:02:52;7.95;;;3.38;;
80758;SDS011;70150;45.582;10.178;2023-05-20T09:05:19;6.47;;;3.00;;
80758;SDS011;70150;45.582;10.178;2023-05-20T09:07:45;5.43;;;3.10;;
80758;SDS011;70150;45.582;10.178;2023-05-20T09:10:11;4.90;;;2.60;;
80758;SDS011;70150;45.582;10.178;2023-05-20T09:12:37;5.57;;;2.33;;
80758;SDS011;70150;45.582;10.178;2023-05-20T09:15:03;5.25;;;2.30;;
80758;SDS011;70150;45.582;10.178;2023-05-20T09:17:29;4.82;;;2.63;;
80758;SDS011;70150;45.582;10.178;2023-05-20T09:19:55;4.30;;;2.40;;
80758;SDS011;70150;45.582;10.178;2023-05-20T09:24:52;2.47;;;2.00;;
80758;SDS011;70150;45.582;10.178;2023-05-20T09:27:18;5.68;;;2.55;;
80758;SDS011;70150;45.582;10.178;2023-05-20T09:29:46;4.10;;;2.50;;
80758;SDS011;70150;45.582;10.178;2023-05-20T09:32:15;4.55;;;2.35;;
80758;SDS011;70150;45.582;10.178;2023-05-20T09:34:41;5.30;;;2.38;;
80758;SDS011;70150;45.582;10.178;2023-05-20T09:37:07;4.65;;;2.78;;
80758;SDS011;70150;45.582;10.178;2023-05-20T09:42:06;5.50;;;3.05;;
80758;SDS011;70150;45.582;10.178;2023-05-20T09:44:40;4.18;;;2.92;;
80758;SDS011;70150;45.582;10.178;2023-05-20T09:47:06;4.07;;;2.53;;
80758;SDS011;70150;45.582;10.178;2023-05-20T09:49:34;4.65;;;2.80;;
80758;SDS011;70150;45.582;10.178;2023-05-20T09:52:01;7.82;;;3.25;;
80758;SDS011;70150;45.582;10.178;2023-05-20T09:54:28;4.88;;;3.00;;
80758;SDS011;70150;45.582;10.178;2023-05-20T09:56:55;6.03;;;3.00;;
80758;SDS011;70150;45.582;10.178;2023-05-20T09:59:23;6.88;;;3.35;;
80758;SDS011;70150;45.582;10.178;2023-05-20T10:01:51;4.20;;;2.83;;
80758;SDS011;70150;45.582;10.178;2023-05-20T10:04:18;6.22;;;3.63;;
80758;SDS011;70150;45.582;10.178;2023-05-20T10:21:55;8.80;;;3.60;;
80758;SDS011;70150;45.582;10.178;2023-05-20T10:24:28;5.70;;;4.07;;
80758;SDS011;70150;45.582;10.178;2023-05-20T10:26:56;8.52;;;5.70;;
80758;SDS011;70150;45.582;10.178;2023-05-20T10:29:22;6.40;;;4.38;;
80758;SDS011;70150;45.582;10.178;2023-05-20T10:31:49;8.60;;;4.35;;
80758;SDS011;70150;45.582;10.178;2023-05-20T10:34:17;5.70;;;3.70;;
80758;SDS011;70150;45.582;10.178;2023-05-20T10:36:45;6.53;;;3.63;;
80758;SDS011;70150;45.582;10.178;2023-05-20T10:39:13;4.82;;;3.20;;
80758;SDS011;70150;45.582;10.178;2023-05-20T10:41:41;4.82;;;3.40;;
80758;SDS011;70150;45.582;10.178;2023-05-20T10:44:07;6.82;;;3.60;;
80758;SDS011;70150;45.582;10.178;2023-05-20T10:46:33;7.70;;;4.45;;
80758;SDS011;70150;45.582;10.178;2023-05-20T10:49:01;8.35;;;4.45;;
80758;SDS011;70150;45.582;10.178;2023-05-20T10:51:27;7.35;;;3.70;;
80758;SDS011;70150;45.582;10.178;2023-05-20T10:53:53;3.70;;;2.50;;
80758;SDS011;70150;45.582;10.178;2023-05-20T10:56:20;4.65;;;3.08;;
80758;SDS011;70150;45.582;10.178;2023-05-20T10:58:48;5.90;;;3.42;;
80758;SDS011;70150;45.582;10.178;2023-05-20T11:01:15;5.22;;;3.22;;
80758;SDS011;70150;45.582;10.178;2023-05-20T11:03:44;7.15;;;3.15;;
80758;SDS011;70150;45.582;10.178;2023-05-20T11:08:38;4.97;;;2.92;;
80758;SDS011;70150;45.582;10.178;2023-05-20T11:11:04;4.07;;;2.92;;
80758;SDS011;70150;45.582;10.178;2023-05-20T11:13:30;5.40;;;2.90;;
80758;SDS011;70150;45.582;10.178;2023-05-20T11:15:56;5.72;;;3.15;;
80758;SDS011;70150;45.582;10.178;2023-05-20T11:20:50;4.50;;;2.83;;
80758;SDS011;70150;45.582;10.178;2023-05-20T11:23:18;5.05;;;2.67;;
80758;SDS011;70150;45.582;10.178;2023-05-20T11:25:43;4.15;;;3.10;;
80758;SDS011;70150;45.582;10.178;2023-05-20T11:30:38;4.82;;;2.85;;
80758;SDS011;70150;45.582;10.178;2023-05-20T11:40:26;3.80;;;2.58;;
80758;SDS011;70150;45.582;10.178;2023-05-20T11:42:53;4.50;;;2.63;;
80758;SDS011;70150;45.582;10.178;2023-05-20T11:45:20;3.90;;;2.63;;
80758;SDS011;70150;45.582;10.178;2023-05-20T11:47:46;3.83;;;2.50;;
80758;SDS011;70150;45.582;10.178;2023-05-20T11:50:23;2.92;;;2.13;;
80758;SDS011;70150;45.582;10.178;2023-05-20T11:55:21;3.25;;;2.35;;
80758;SDS011;70150;45.582;10.178;2023-05-20T11:57:47;4.28;;;2.35;;
80758;SDS011;70150;45.582;10.178;2023-05-20T12:00:12;5.88;;;2.45;;
80758;SDS011;70150;45.582;10.178;2023-05-20T12:02:38;3.53;;;2.30;;
80758;SDS011;70150;45.582;10.178;2023-05-20T12:05:03;4.97;;;2.50;;
80758;SDS011;70150;45.582;10.178;2023-05-20T12:07:29;5.38;;;2.60;;
80758;SDS011;70150;45.582;10.178;2023-05-20T12:09:55;4.05;;;2.70;;
80758;SDS011;70150;45.582;10.178;2023-05-20T12:12:21;4.50;;;2.30;;
80758;SDS011;70150;45.582;10.178;2023-05-20T12:14:46;4.55;;;2.80;;
80758;SDS011;70150;45.582;10.178;2023-05-20T12:17:12;4.30;;;2.60;;
80758;SDS011;70150;45.582;10.178;2023-05-20T12:19:37;4.45;;;2.65;;
80758;SDS011;70150;45.582;10.178;2023-05-20T12:22:03;5.00;;;2.55;;
80758;SDS011;70150;45.582;10.178;2023-05-20T12:24:29;3.85;;;2.40;;
80758;SDS011;70150;45.582;10.178;2023-05-20T12:26:54;5.35;;;2.20;;
80758;SDS011;70150;45.582;10.178;2023-05-20T12:29:20;5.10;;;2.97;;
80758;SDS011;70150;45.582;10.178;2023-05-20T12:31:45;4.85;;;2.97;;
80758;SDS011;70150;45.582;10.178;2023-05-20T12:34:11;5.75;;;2.70;;
80758;SDS011;70150;45.582;10.178;2023-05-20T12:36:36;5.28;;;2.70;;
80758;SDS011;70150;45.582;10.178;2023-05-20T12:39:04;4.20;;;2.70;;
80758;SDS011;70150;45.582;10.178;2023-05-20T12:41:30;3.97;;;2.47;;
80758;SDS011;70150;45.582;10.178;2023-05-20T12:43:55;3.45;;;2.33;;
80758;SDS011;70150;45.582;10.178;2023-05-20T12:46:21;3.45;;;2.55;;
80758;SDS011;70150;45.582;10.178;2023-05-20T12:48:47;3.63;;;2.17;;
80758;SDS011;70150;45.582;10.178;2023-05-20T12:51:12;4.13;;;2.58;;
80758;SDS011;70150;45.582;10.178;2023-05-20T12:53:38;5.03;;;2.28;;
80758;SDS011;70150;45.582;10.178;2023-05-20T12:56:03;4.57;;;2.80;;
80758;SDS011;70150;45.582;10.178;2023-05-20T12:58:29;4.43;;;2.75;;
80758;SDS011;70150;45.582;10.178;2023-05-20T13:00:55;5.28;;;2.58;;
80758;SDS011;70150;45.582;10.178;2023-05-20T13:03:20;4.82;;;2.60;;
80758;SDS011;70150;45.582;10.178;2023-05-20T13:05:46;4.07;;;2.90;;
80758;SDS011;70150;45.582;10.178;2023-05-20T13:08:11;7.60;;;3.20;;
80758;SDS011;70150;45.582;10.178;2023-05-20T13:15:31;5.35;;;2.92;;
80758;SDS011;70150;45.582;10.178;2023-05-20T13:17:57;7.57;;;3.83;;
80758;SDS011;70150;45.582;10.178;2023-05-20T13:20:25;9.60;;;4.13;;
80758;SDS011;70150;45.582;10.178;2023-05-20T13:22:51;5.97;;;3.88;;
80758;SDS011;70150;45.582;10.178;2023-05-20T13:25:16;6.35;;;4.05;;
80758;SDS011;70150;45.582;10.178;2023-05-20T13:27:42;7.40;;;4.28;;
80758;SDS011;70150;45.582;10.178;2023-05-20T13:30:08;6.82;;;4.05;;
80758;SDS011;70150;45.582;10.178;2023-05-20T13:32:33;7.60;;;4.65;;
80758;SDS011;70150;45.582;10.178;2023-05-20T13:34:59;7.65;;;4.07;;
80758;SDS011;70150;45.582;10.178;2023-05-20T13:37:25;6.28;;;4.25;;
80758;SDS011;70150;45.582;10.178;2023-05-20T13:39:50;7.75;;;4.15;;
80758;SDS011;70150;45.582;10.178;2023-05-20T13:42:16;7.45;;;3.95;;
80758;SDS011;70150;45.582;10.178;2023-05-20T13:44:41;7.53;;;4.63;;
80758;SDS011;70150;45.582;10.178;2023-05-20T13:47:07;7.22;;;4.38;;
80758;SDS011;70150;45.582;10.178;2023-05-20T13:49:33;8.20;;;4.60;;
80758;SDS011;70150;45.582;10.178;2023-05-20T13:51:58;7.70;;;5.25;;
80758;SDS011;70150;45.582;10.178;2023-05-20T13:54:24;7.07;;;4.85;;
80758;SDS011;70150;45.582;10.178;2023-05-20T13:56:49;9.98;;;5.20;;
80758;SDS011;70150;45.582;10.178;2023-05-20T13:59:15;9.65;;;4.80;;
80758;SDS011;70150;45.582;10.178;2023-05-20T14:01:41;8.65;;;4.78;;
80758;SDS011;70150;45.582;10.178;2023-05-20T14:04:09;9.15;;;4.45;;
80758;SDS011;70150;45.582;10.178;2023-05-20T14:06:36;7.75;;;4.55;;
80758;SDS011;70150;45.582;10.178;2023-05-20T14:09:02;7.47;;;4.70;;
80758;SDS011;70150;45.582;10.178;2023-05-20T14:11:27;6.60;;;4.57;;
80758;SDS011;70150;45.582;10.178;2023-05-20T14:13:53;8.55;;;4.65;;
80758;SDS011;70150;45.582;10.178;2023-05-20T14:16:18;10.63;;;5.03;;
80758;SDS011;70150;45.582;10.178;2023-05-20T14:18:44;10.05;;;4.80;;
80758;SDS011;70150;45.582;10.178;2023-05-20T14:21:10;9.10;;;4.70;;
80758;SDS011;70150;45.582;10.178;2023-05-20T14:23:36;7.00;;;4.30;;
80758;SDS011;70150;45.582;10.178;2023-05-20T14:26:01;7.43;;;4.40;;
80758;SDS011;70150;45.582;10.178;2023-05-20T14:28:27;6.63;;;4.45;;
80758;SDS011;70150;45.582;10.178;2023-05-20T14:30:52;8.25;;;4.80;;
80758;SDS011;70150;45.582;10.178;2023-05-20T14:33:20;7.18;;;4.68;;
80758;SDS011;70150;45.582;10.178;2023-05-20T14:35:46;8.48;;;4.72;;
80758;SDS011;70150;45.582;10.178;2023-05-20T14:38:11;8.43;;;4.75;;
80758;SDS011;70150;45.582;10.178;2023-05-20T14:40:37;8.63;;;5.03;;
80758;SDS011;70150;45.582;10.178;2023-05-20T14:43:02;8.82;;;4.97;;
80758;SDS011;70150;45.582;10.178;2023-05-20T14:45:28;7.90;;;4.47;;
80758;SDS011;70150;45.582;10.178;2023-05-20T14:47:53;7.88;;;4.20;;
80758;SDS011;70150;45.582;10.178;2023-05-20T14:50:19;9.40;;;5.13;;
80758;SDS011;70150;45.582;10.178;2023-05-20T14:52:45;9.57;;;4.90;;
80758;SDS011;70150;45.582;10.178;2023-05-20T14:55:10;9.73;;;4.70;;
80758;SDS011;70150;45.582;10.178;2023-05-20T14:57:38;8.75;;;4.82;;
80758;SDS011;70150;45.582;10.178;2023-05-20T15:00:04;7.40;;;5.10;;
80758;SDS011;70150;45.582;10.178;2023-05-20T15:02:30;7.40;;;4.80;;
80758;SDS011;70150;45.582;10.178;2023-05-20T15:04:55;7.07;;;4.75;;
80758;SDS011;70150;45.582;10.178;2023-05-20T15:07:23;8.05;;;5.00;;
80758;SDS011;70150;45.582;10.178;2023-05-20T15:09:49;6.40;;;4.78;;
80758;SDS011;70150;45.582;10.178;2023-05-20T15:12:15;7.53;;;4.50;;
80758;SDS011;70150;45.582;10.178;2023-05-20T15:14:40;7.25;;;4.22;;
80758;SDS011;70150;45.582;10.178;2023-05-20T15:17:06;6.95;;;4.43;;
80758;SDS011;70150;45.582;10.178;2023-05-20T15:19:31;6.80;;;4.60;;
80758;SDS011;70150;45.582;10.178;2023-05-20T15:21:57;6.65;;;3.97;;
80758;SDS011;70150;45.582;10.178;2023-05-20T15:24:23;6.57;;;4.20;;
80758;SDS011;70150;45.582;10.178;2023-05-20T15:26:48;9.68;;;5.00;;
80758;SDS011;70150;45.582;10.178;2023-05-20T15:29:14;8.35;;;4.82;;
80758;SDS011;70150;45.582;10.178;2023-05-20T15:31:40;9.40;;;5.28;;